This is the latest recevied weather packets stored in our database for station/object N5YHM-13. If no packets are shown the sender has not sent any weather packets the latest 10 day(s).
| Time | Temp. | Humidity | Pressure | Rain* | Wind** | Luminosity | Snow |
|---|---|---|---|---|---|---|---|
| 1787599243 | 23.33° C | 99% | 1018.5 hPa | 7.87 mm | - | 1 W/m² | - |
| 1787598938 | 23.33° C | 99% | 1019.4 hPa | 7.11 mm | - | 1 W/m² | - |
| 1787598634 | 23.33° C | 99% | 1019.7 hPa | 8.89 mm | - | 1 W/m² | - |
| 1787598328 | 23.33° C | 99% | 1019.5 hPa | 10.67 mm | - | 1 W/m² | - |
| 1787598026 | 23.33° C | 99% | 1019.4 hPa | 10.67 mm | - | 1 W/m² | - |
| 1787597725 | 22.78° C | 99% | 1019.8 hPa | 11.94 mm | - | 1 W/m² | - |
| 1787597424 | 22.78° C | 99% | 1020.2 hPa | 14.99 mm | - | 1 W/m² | - |
| 1787597118 | 22.78° C | 99% | 1019.4 hPa | 14.99 mm | - | 1 W/m² | - |
| 1787596815 | 22.78° C | 99% | 1019.5 hPa | 14.99 mm | - | 1 W/m² | - |
| 1787596510 | 22.78° C | 99% | 1020.6 hPa | 21.59 mm | - | 1 W/m² | - |
| 1787596206 | 22.78° C | 99% | 1019.6 hPa | 31.75 mm | - | 1 W/m² | - |
| 1787595902 | 23.33° C | 98% | 1018.8 hPa | 24.64 mm | - | 1 W/m² | - |
| 1787595596 | 25° C | 95% | 1017.9 hPa | 3.05 mm | - | 1 W/m² | - |
| 1787595293 | 26.11° C | 89% | 1018.4 hPa | 0 mm | - | 2 W/m² | - |
| 1787594992 | 27.78° C | 90% | 1018.4 hPa | 0 mm | - | 2 W/m² | - |
| 1787594687 | 28.33° C | 86% | 1018.1 hPa | 0 mm | - | 2 W/m² | - |
| 1787594386 | 28.89° C | 86% | 1018.3 hPa | 0 mm | - | 1 W/m² | - |
| 1787594080 | 30° C | 85% | 1018.6 hPa | 0 mm | - | 1 W/m² | - |
| 1787593776 | 30.56° C | 89% | 1018.4 hPa | 0 mm | - | 1 W/m² | - |
| 1787593470 | 30.56° C | 87% | 1018.5 hPa | 0 mm | - | 3 W/m² | - |
| 1787593166 | 31.11° C | 85% | 1018.5 hPa | 0 mm | - | 6 W/m² | - |
| 1787592866 | 31.11° C | 84% | 1018.2 hPa | 0 mm | - | 5 W/m² | - |
| 1787592566 | 31.11° C | 79% | 1018.2 hPa | 0 mm | - | 10 W/m² | - |
| 1787592260 | 31.11° C | 81% | 1018.5 hPa | 0 mm | - | 14 W/m² | - |
| 1787591956 | 31.11° C | 80% | 1018.4 hPa | 0 mm | - | 15 W/m² | - |
* Rain latest hour (hover to see other rain measurements)
** Current wind speed in m/s (hover to see current wind gust speed)